Time;durP1;ratioP1;P1;durP2;ratioP2;P2;SDS_P1;SDS_P2;PMS_P1;PMS_P2;Temp;Humidity;BMP_temperature;BMP_pressure;BME280_temperature;BME280_humidity;BME280_pressure;Samples;Min_cycle;Max_cycle;Signal;HPM_P1;HPM_P2
2021/07/05 00:02:22;;;;;;;5.23;2.30;;;17.70;99.50;;;;;;5053342;28;20223;-76
2021/07/05 00:04:47;;;;;;;3.67;1.67;;;17.70;98.90;;;;;;5055004;28;20169;-76
2021/07/05 00:07:14;;;;;;;3.80;1.70;;;17.80;94.90;;;;;;5054590;28;20705;-73
2021/07/05 00:09:41;;;;;;;4.67;2.00;;;17.90;93.10;;;;;;5055828;28;20165;-74
2021/07/05 00:12:08;;;;;;;5.63;2.33;;;17.70;92.10;;;;;;5055290;28;20165;-76
2021/07/05 00:14:35;;;;;;;4.03;2.00;;;17.60;92.90;;;;;;5054995;28;20169;-79
2021/07/05 00:17:02;;;;;;;6.73;2.50;;;17.50;93.80;;;;;;5054950;28;20181;-80
2021/07/05 00:19:28;;;;;;;3.30;1.80;;;17.50;93.30;;;;;;5055184;28;20196;-73
2021/07/05 00:21:54;;;;;;;5.57;2.07;;;17.50;91.40;;;;;;5067187;28;20177;-79
2021/07/05 00:24:20;;;;;;;6.83;2.43;;;17.70;91.00;;;;;;5068806;28;20191;-79
2021/07/05 00:26:46;;;;;;;5.77;1.80;;;17.60;90.10;;;;;;5055702;28;20165;-73
2021/07/05 00:29:12;;;;;;;6.77;2.13;;;17.60;91.20;;;;;;5055688;28;20199;-76
2021/07/05 00:31:39;;;;;;;5.27;2.50;;;17.60;92.30;;;;;;5054807;28;20633;-74
2021/07/05 00:34:08;;;;;;;3.33;2.00;;;17.50;91.00;;;;;;5053740;28;20171;-79
2021/07/05 00:36:34;;;;;;;5.97;2.10;;;17.60;90.90;;;;;;5054243;28;20164;-74
2021/07/05 00:39:00;;;;;;;5.30;2.40;;;17.80;90.60;;;;;;5054118;28;20169;-79
2021/07/05 00:41:29;;;;;;;4.93;1.77;;;17.60;91.20;;;;;;5053975;28;20218;-75
2021/07/05 00:43:56;;;;;;;5.27;2.00;;;17.60;92.50;;;;;;5053957;28;20223;-80
2021/07/05 00:46:22;;;;;;;5.33;2.17;;;17.50;94.20;;;;;;5054235;28;20624;-75
2021/07/05 00:48:48;;;;;;;4.30;1.73;;;17.50;93.50;;;;;;5054694;28;20169;-81
2021/07/05 00:51:13;;;;;;;4.60;2.10;;;17.60;93.70;;;;;;5067624;28;20180;-73
2021/07/05 00:53:39;;;;;;;7.00;2.20;;;17.50;93.70;;;;;;5068012;28;20165;-73
2021/07/05 00:56:05;;;;;;;4.80;1.97;;;17.50;94.70;;;;;;5062651;28;20180;-79
2021/07/05 00:58:31;;;;;;;4.23;2.13;;;17.50;94.80;;;;;;5055061;28;20173;-80
2021/07/05 01:00:59;;;;;;;6.83;1.90;;;17.50;95.40;;;;;;5055278;28;20166;-81
2021/07/05 01:03:25;;;;;;;7.37;2.30;;;17.50;95.70;;;;;;5053968;28;20192;-73
2021/07/05 01:05:53;;;;;;;4.03;1.97;;;17.60;95.20;;;;;;5054079;28;20165;-77
2021/07/05 01:08:19;;;;;;;4.83;2.20;;;17.60;95.10;;;;;;5053978;28;20169;-80
2021/07/05 01:10:47;;;;;;;4.27;2.03;;;17.50;95.30;;;;;;5053541;28;20176;-73
2021/07/05 01:13:12;;;;;;;4.70;2.30;;;17.50;95.40;;;;;;5053782;28;20605;-80
2021/07/05 01:15:38;;;;;;;4.33;2.33;;;17.70;92.60;;;;;;5054092;28;20671;-73
2021/07/05 01:18:06;;;;;;;5.53;2.60;;;17.80;91.90;;;;;;5056315;28;20173;-74
2021/07/05 01:20:35;;;;;;;6.07;2.63;;;17.60;93.50;;;;;;5061369;28;20180;-79
2021/07/05 01:23:01;;;;;;;6.33;2.37;;;17.60;93.40;;;;;;5064909;28;20225;-76
2021/07/05 01:25:28;;;;;;;5.53;2.10;;;17.40;94.80;;;;;;5056216;28;20198;-80
2021/07/05 01:27:55;;;;;;;4.60;2.57;;;17.30;96.50;;;;;;5060431;28;20188;-75
2021/07/05 01:30:22;;;;;;;6.23;2.10;;;17.20;97.50;;;;;;5060702;28;20169;-79
2021/07/05 01:32:49;;;;;;;8.60;2.80;;;17.20;98.10;;;;;;5064241;28;20168;-73
2021/07/05 01:35:16;;;;;;;4.40;2.40;;;17.20;98.20;;;;;;5068282;28;20193;-75
2021/07/05 01:37:42;;;;;;;4.27;2.20;;;17.20;98.40;;;;;;5065499;28;20204;-74
2021/07/05 01:40:18;;;;;;;4.87;2.23;;;17.20;98.70;;;;;;5070197;28;20173;-80
2021/07/05 01:42:58;;;;;;;4.87;2.63;;;17.00;99.00;;;;;;5059824;28;20207;-81
2021/07/05 01:45:31;;;;;;;5.20;2.30;;;17.00;99.70;;;;;;5054048;28;20165;-80
2021/07/05 01:48:00;;;;;;;7.00;2.67;;;16.90;99.90;;;;;;5053446;28;20231;-81
2021/07/05 01:50:28;;;;;;;7.50;2.40;;;16.90;99.90;;;;;;5053130;28;20271;-74
2021/07/05 01:52:58;;;;;;;6.77;2.50;;;16.90;99.90;;;;;;5053259;28;20160;-82
2021/07/05 01:55:28;;;;;;;6.57;3.07;;;16.90;99.90;;;;;;5053032;28;20302;-77
2021/07/05 01:57:54;;;;;;;7.57;2.40;;;16.80;99.90;;;;;;5053161;28;20195;-77
2021/07/05 02:00:20;;;;;;;5.70;3.30;;;16.90;99.90;;;;;;5053111;28;20629;-75
2021/07/05 02:02:46;;;;;;;6.83;3.20;;;16.90;99.90;;;;;;5052918;28;20228;-75
2021/07/05 02:05:15;;;;;;;6.80;3.33;;;16.80;99.90;;;;;;5052683;28;20323;-80
2021/07/05 02:07:41;;;;;;;9.17;3.00;;;16.90;99.90;;;;;;5052624;28;20248;-77
2021/07/05 02:10:12;;;;;;;6.93;2.97;;;16.80;99.90;;;;;;5053348;28;20176;-81
2021/07/05 02:12:41;;;;;;;5.20;2.93;;;16.70;99.90;;;;;;5052864;28;20165;-74
2021/07/05 02:15:13;;;;;;;7.47;3.50;;;16.70;99.90;;;;;;5052532;28;20175;-79
2021/07/05 02:17:39;;;;;;;7.77;3.07;;;16.60;99.90;;;;;;5053298;28;20165;-75
2021/07/05 02:20:09;;;;;;;7.53;3.10;;;16.50;99.90;;;;;;5052968;28;20161;-80
2021/07/05 02:22:37;;;;;;;9.43;2.97;;;16.60;99.90;;;;;;5053994;28;20310;-80
2021/07/05 02:25:11;;;;;;;7.23;2.80;;;16.70;99.90;;;;;;5062142;28;20193;-72
2021/07/05 02:27:39;;;;;;;9.07;2.97;;;16.60;99.90;;;;;;5066541;28;20180;-72
2021/07/05 02:30:07;;;;;;;9.70;3.03;;;16.70;99.90;;;;;;5058447;28;20173;-73
2021/07/05 02:32:33;;;;;;;7.70;2.83;;;16.60;99.90;;;;;;5055763;28;20173;-81
2021/07/05 02:35:03;;;;;;;7.93;2.73;;;16.50;99.90;;;;;;5053724;28;20183;-78
2021/07/05 02:37:29;;;;;;;7.60;2.90;;;16.50;99.90;;;;;;5051872;28;20654;-80
2021/07/05 02:39:54;;;;;;;8.17;2.70;;;16.70;99.90;;;;;;5053082;28;20252;-74
2021/07/05 02:42:20;;;;;;;9.50;2.73;;;16.70;99.90;;;;;;5052909;28;20205;-78
2021/07/05 02:44:46;;;;;;;4.73;2.70;;;16.70;99.90;;;;;;5052943;28;20252;-74
2021/07/05 02:47:11;;;;;;;8.50;3.17;;;16.60;99.90;;;;;;5052855;28;20175;-80
2021/07/05 02:49:37;;;;;;;7.00;2.90;;;16.50;99.90;;;;;;5053348;28;20218;-80
2021/07/05 02:52:03;;;;;;;5.57;2.73;;;16.50;99.90;;;;;;5052829;28;20681;-80
2021/07/05 02:54:29;;;;;;;7.10;3.30;;;16.50;99.90;;;;;;5052846;28;20172;-74
2021/07/05 02:56:54;;;;;;;7.50;2.87;;;16.50;99.90;;;;;;5060421;28;20183;-78
2021/07/05 02:59:20;;;;;;;8.40;3.17;;;16.50;99.90;;;;;;5063566;28;20165;-75
2021/07/05 03:01:46;;;;;;;6.67;2.73;;;16.50;99.90;;;;;;5055942;28;20531;-73
2021/07/05 03:04:11;;;;;;;9.43;2.87;;;16.50;99.90;;;;;;5056275;28;20205;-73
2021/07/05 03:06:37;;;;;;;6.90;3.00;;;16.60;99.90;;;;;;5056365;28;20628;-78
2021/07/05 03:09:03;;;;;;;7.80;2.97;;;16.50;99.90;;;;;;5056027;28;20169;-77
2021/07/05 03:11:29;;;;;;;8.83;2.90;;;16.40;99.90;;;;;;5056118;28;20165;-80
2021/07/05 03:13:55;;;;;;;9.33;2.73;;;16.50;99.90;;;;;;5055999;28;20176;-73
2021/07/05 03:16:20;;;;;;;5.70;2.70;;;16.50;99.90;;;;;;5055947;28;20660;-81
2021/07/05 03:18:46;;;;;;;7.50;3.13;;;16.40;99.90;;;;;;5056144;28;20633;-75
2021/07/05 03:21:12;;;;;;;9.47;3.00;;;16.50;99.90;;;;;;5064955;28;20635;-74
2021/07/05 03:23:38;;;;;;;5.77;2.97;;;16.50;99.90;;;;;;5068092;28;20200;-73
2021/07/05 03:26:03;;;;;;;5.13;2.77;;;16.50;99.90;;;;;;5071973;28;20171;-78
2021/07/05 03:28:29;;;;;;;8.00;2.77;;;16.40;99.90;;;;;;5072518;28;20173;-75
2021/07/05 03:30:55;;;;;;;9.77;3.23;;;16.40;99.90;;;;;;5070299;28;20177;-73
2021/07/05 03:33:21;;;;;;;6.63;2.87;;;16.40;99.90;;;;;;5071106;28;20165;-75
2021/07/05 03:35:49;;;;;;;9.57;3.10;;;16.40;99.90;;;;;;5070672;28;20255;-78
2021/07/05 03:38:17;;;;;;;8.97;3.37;;;16.40;99.90;;;;;;5071668;28;20177;-73
2021/07/05 03:40:44;;;;;;;7.20;3.20;;;16.50;99.90;;;;;;5071602;28;20209;-78
2021/07/05 03:43:14;;;;;;;8.10;3.80;;;16.40;99.90;;;;;;5066732;28;20211;-81
2021/07/05 03:45:43;;;;;;;6.07;3.27;;;16.40;99.90;;;;;;5059130;28;20176;-79
2021/07/05 03:48:13;;;;;;;6.63;3.30;;;16.30;99.90;;;;;;5056080;28;20181;-81
2021/07/05 03:50:41;;;;;;;7.40;3.70;;;16.20;99.90;;;;;;5055504;28;20154;-81
2021/07/05 03:53:07;;;;;;;14.70;7.33;;;16.20;99.90;;;;;;5055520;28;20169;-80
2021/07/05 03:55:34;;;;;;;10.03;3.87;;;16.40;99.90;;;;;;5055078;28;20230;-74
2021/07/05 03:58:00;;;;;;;8.63;2.97;;;16.40;99.90;;;;;;5055194;28;20177;-78
2021/07/05 04:00:35;;;;;;;8.63;3.03;;;16.40;99.90;;;;;;5054937;28;20231;-78
2021/07/05 04:03:01;;;;;;;11.70;3.70;;;16.50;99.90;;;;;;5054477;28;20204;-79
2021/07/05 04:05:27;;;;;;;9.83;3.33;;;16.40;99.90;;;;;;5054851;28;20637;-81
2021/07/05 04:07:53;;;;;;;7.83;3.27;;;16.40;99.90;;;;;;5054407;28;20177;-73
2021/07/05 04:10:19;;;;;;;10.40;3.33;;;16.40;99.90;;;;;;5054766;28;20176;-78
2021/07/05 04:12:46;;;;;;;7.27;2.70;;;16.40;99.90;;;;;;5054635;28;20169;-76
2021/07/05 04:15:14;;;;;;;8.50;3.53;;;16.40;99.90;;;;;;5054696;28;20166;-81
2021/07/05 04:17:39;;;;;;;10.20;3.60;;;16.40;99.90;;;;;;5054458;28;20662;-80
2021/07/05 04:20:14;;;;;;;8.70;3.67;;;16.40;99.90;;;;;;5054871;28;20172;-80
2021/07/05 04:22:40;;;;;;;8.10;3.70;;;16.50;99.90;;;;;;5054907;28;20680;-77
2021/07/05 04:25:07;;;;;;;9.83;3.70;;;16.50;99.90;;;;;;5064028;28;20188;-74
2021/07/05 04:27:33;;;;;;;10.03;4.20;;;16.50;99.90;;;;;;5054630;28;20189;-81
2021/07/05 04:29:59;;;;;;;9.73;3.97;;;16.60;99.90;;;;;;5054493;28;20177;-81
2021/07/05 04:32:24;;;;;;;6.80;3.50;;;16.60;99.90;;;;;;5054185;28;20176;-78
2021/07/05 04:34:50;;;;;;;14.03;4.73;;;16.60;99.90;;;;;;5054318;28;20176;-79
2021/07/05 04:37:17;;;;;;;10.40;4.57;;;16.70;99.90;;;;;;5054502;28;20234;-82
2021/07/05 04:39:42;;;;;;;12.20;6.10;;;16.50;99.90;;;;;;5054400;28;20165;-74
2021/07/05 04:42:08;;;;;;;16.07;7.43;;;16.70;99.90;;;;;;5054179;28;20195;-82
2021/07/05 04:44:34;;;;;;;9.63;4.47;;;16.70;99.90;;;;;;5054417;28;20649;-80
2021/07/05 04:47:00;;;;;;;9.87;4.57;;;16.70;99.90;;;;;;5054436;28;20264;-76
2021/07/05 04:49:26;;;;;;;8.90;4.50;;;16.70;99.90;;;;;;5053524;28;20248;-76
2021/07/05 04:51:53;;;;;;;7.10;4.50;;;16.70;99.90;;;;;;5054072;28;20645;-78
2021/07/05 04:54:18;;;;;;;10.17;4.73;;;16.80;99.90;;;;;;5053861;28;20175;-74
2021/07/05 04:56:44;;;;;;;11.03;4.63;;;16.80;99.90;;;;;;5053765;28;20268;-75
2021/07/05 04:59:12;;;;;;;8.97;4.37;;;16.70;99.90;;;;;;5054314;28;20173;-81
2021/07/05 05:01:38;;;;;;;7.30;3.87;;;16.70;99.90;;;;;;5054127;28;20173;-80
2021/07/05 05:04:04;;;;;;;8.43;4.60;;;16.80;99.90;;;;;;5054484;28;20604;-76
2021/07/05 05:06:29;;;;;;;9.03;4.63;;;16.70;99.90;;;;;;5054212;28;20176;-73
2021/07/05 05:08:55;;;;;;;8.53;4.57;;;16.70;99.90;;;;;;5053996;28;20180;-75
2021/07/05 05:11:21;;;;;;;10.80;4.73;;;16.80;99.90;;;;;;5054567;28;20173;-74
2021/07/05 05:13:47;;;;;;;8.07;4.30;;;16.80;99.90;;;;;;5055014;28;20169;-81
2021/07/05 05:16:14;;;;;;;9.10;4.03;;;16.80;99.90;;;;;;5053549;28;20173;-79
2021/07/05 05:18:40;;;;;;;14.10;5.00;;;16.80;99.90;;;;;;5052828;28;20181;-82
2021/07/05 05:21:06;;;;;;;9.57;4.57;;;16.70;99.90;;;;;;5053792;28;20169;-81
2021/07/05 05:23:32;;;;;;;10.40;4.40;;;16.70;99.90;;;;;;5053542;28;20634;-79
2021/07/05 05:25:57;;;;;;;12.17;4.70;;;16.70;99.90;;;;;;5054158;28;20168;-78
2021/07/05 05:28:23;;;;;;;9.90;4.33;;;16.90;99.90;;;;;;5057187;28;20660;-74
2021/07/05 05:30:49;;;;;;;6.50;4.33;;;16.70;99.90;;;;;;5068065;28;20180;-74
2021/07/05 05:33:14;;;;;;;8.80;3.80;;;16.80;99.90;;;;;;5065365;28;20251;-74
2021/07/05 05:35:40;;;;;;;8.87;3.67;;;16.80;99.90;;;;;;5057549;28;20223;-78
2021/07/05 05:38:06;;;;;;;11.20;4.07;;;16.80;99.90;;;;;;5058358;28;20180;-78
2021/07/05 05:40:37;;;;;;;9.10;3.50;;;16.90;99.90;;;;;;5063027;28;20168;-76
2021/07/05 05:43:08;;;;;;;7.57;3.77;;;16.90;99.90;;;;;;5063845;28;20197;-73
2021/07/05 05:45:35;;;;;;;6.17;3.50;;;17.00;99.90;;;;;;5061379;28;20713;-71
2021/07/05 05:48:01;;;;;;;7.30;3.47;;;16.90;99.90;;;;;;5063653;28;20165;-72
2021/07/05 05:50:27;;;;;;;9.07;3.83;;;16.90;99.90;;;;;;5064593;28;20260;-73
2021/07/05 05:52:53;;;;;;;8.43;3.93;;;16.90;99.90;;;;;;5064007;28;20184;-73
2021/07/05 05:55:21;;;;;;;7.20;3.63;;;16.90;99.90;;;;;;5059022;28;20254;-77
2021/07/05 05:57:48;;;;;;;8.63;3.40;;;17.10;99.90;;;;;;5061774;28;20706;-74
2021/07/05 06:00:21;;;;;;;8.00;3.73;;;17.00;99.90;;;;;;5067558;28;20587;-75
2021/07/05 06:02:49;;;;;;;7.63;3.77;;;16.90;99.90;;;;;;5064776;28;20192;-74
2021/07/05 06:05:15;;;;;;;7.83;3.70;;;16.90;99.90;;;;;;5070686;28;20150;-72
2021/07/05 06:07:46;;;;;;;8.03;3.60;;;16.80;99.90;;;;;;5071524;28;20188;-76
2021/07/05 06:10:13;;;;;;;7.43;3.23;;;16.90;99.90;;;;;;5058682;28;20158;-74
2021/07/05 06:12:41;;;;;;;7.13;3.77;;;16.80;99.90;;;;;;5057398;28;20640;-76
2021/07/05 06:15:26;;;;;;;7.37;3.10;;;17.00;99.90;;;;;;5054930;28;20164;-77
2021/07/05 06:17:54;;;;;;;6.53;3.50;;;17.00;99.90;;;;;;5054156;28;20211;-79
2021/07/05 06:20:21;;;;;;;7.27;2.73;;;17.00;99.90;;;;;;5053945;28;20172;-73
2021/07/05 06:22:52;;;;;;;5.63;2.70;;;17.10;99.90;;;;;;5054152;28;20204;-75
2021/07/05 06:25:18;;;;;;;5.53;2.80;;;17.10;99.90;;;;;;5054613;28;20197;-78
2021/07/05 06:27:45;;;;;;;6.93;2.83;;;17.00;99.90;;;;;;5054192;28;20265;-74
2021/07/05 06:30:11;;;;;;;9.67;3.00;;;17.00;99.90;;;;;;5054620;28;20230;-81
2021/07/05 06:32:37;;;;;;;4.60;2.80;;;17.00;99.90;;;;;;5056235;28;20212;-78
2021/07/05 06:35:04;;;;;;;6.77;3.00;;;17.20;99.90;;;;;;5056546;28;20169;-78
2021/07/05 06:37:30;;;;;;;9.70;3.00;;;17.30;99.90;;;;;;5056111;28;20656;-78
2021/07/05 06:39:56;;;;;;;6.10;2.57;;;17.30;99.90;;;;;;5056278;28;20170;-81
2021/07/05 06:42:21;;;;;;;6.23;2.90;;;17.40;99.90;;;;;;5056595;28;20520;-81
2021/07/05 06:44:47;;;;;;;6.83;2.63;;;17.50;99.90;;;;;;5056167;28;20231;-81
2021/07/05 06:47:14;;;;;;;6.87;2.80;;;17.50;99.90;;;;;;5056959;28;20205;-82
2021/07/05 06:49:39;;;;;;;6.90;2.43;;;17.50;99.50;;;;;;5056068;28;20509;-78
2021/07/05 06:52:05;;;;;;;5.17;2.57;;;17.50;99.70;;;;;;5056026;28;20177;-78
2021/07/05 06:54:31;;;;;;;19.13;2.90;;;17.30;99.90;;;;;;5055592;28;20192;-82
2021/07/05 06:56:57;;;;;;;8.10;3.10;;;17.40;99.70;;;;;;5055619;28;20191;-81
2021/07/05 06:59:23;;;;;;;13.23;3.37;;;17.40;99.80;;;;;;5055783;28;20173;-73
2021/07/05 07:01:48;;;;;;;10.97;3.43;;;17.40;99.70;;;;;;5055619;28;20166;-77
2021/07/05 07:04:14;;;;;;;8.77;3.63;;;17.20;99.90;;;;;;5055893;28;20209;-79
2021/07/05 07:06:40;;;;;;;12.03;3.10;;;17.20;99.90;;;;;;5055581;28;20176;-73
2021/07/05 07:09:07;;;;;;;17.63;4.40;;;17.20;99.90;;;;;;5055627;28;20255;-74
2021/07/05 07:11:32;;;;;;;16.10;3.77;;;17.50;99.90;;;;;;5055375;28;20660;-80
2021/07/05 07:13:58;;;;;;;8.07;2.90;;;17.40;99.90;;;;;;5055696;28;20258;-74
2021/07/05 07:16:28;;;;;;;11.37;3.13;;;17.20;99.90;;;;;;5055679;28;20173;-74
2021/07/05 07:21:38;;;;;;;7.13;3.17;;;17.20;99.90;;;;;;5055052;28;20183;-75
2021/07/05 07:24:04;;;;;;;8.80;3.03;;;17.40;99.90;;;;;;5055570;28;20213;-74
2021/07/05 07:26:29;;;;;;;13.93;3.60;;;17.40;99.90;;;;;;5055778;28;20244;-79
2021/07/05 07:28:55;;;;;;;15.80;4.10;;;17.40;99.90;;;;;;5055148;28;20178;-80
2021/07/05 07:31:22;;;;;;;9.00;3.63;;;17.50;99.90;;;;;;5055098;28;20248;-80
2021/07/05 07:33:48;;;;;;;5.70;2.97;;;17.50;99.90;;;;;;5055202;28;20260;-81
2021/07/05 07:36:13;;;;;;;6.70;3.23;;;17.50;99.90;;;;;;5055180;28;20165;-74
2021/07/05 07:38:44;;;;;;;7.67;2.70;;;17.50;99.90;;;;;;5055146;28;20533;-73
2021/07/05 07:41:10;;;;;;;6.60;3.07;;;17.40;99.90;;;;;;5054529;28;20659;-81
2021/07/05 07:43:36;;;;;;;5.90;2.50;;;17.20;99.90;;;;;;5054865;28;20210;-82
2021/07/05 07:46:02;;;;;;;5.90;2.60;;;17.20;99.90;;;;;;5054603;28;20169;-81
2021/07/05 07:48:28;;;;;;;8.77;2.97;;;17.10;99.90;;;;;;5055138;28;20571;-78
2021/07/05 07:50:53;;;;;;;9.20;2.60;;;17.10;99.90;;;;;;5054675;28;20165;-78
2021/07/05 07:53:19;;;;;;;9.67;2.73;;;17.00;99.90;;;;;;5055214;28;20176;-82
2021/07/05 07:55:44;;;;;;;6.47;2.73;;;17.10;99.90;;;;;;5054110;28;20287;-81
2021/07/05 07:58:10;;;;;;;10.20;3.10;;;17.10;99.90;;;;;;5055198;28;20177;-82
2021/07/05 08:00:36;;;;;;;5.40;2.77;;;17.40;99.90;;;;;;5054411;28;20650;-81
2021/07/05 08:03:01;;;;;;;7.37;2.97;;;17.60;99.20;;;;;;5054565;28;20318;-81
2021/07/05 08:05:28;;;;;;;5.43;2.30;;;17.70;98.30;;;;;;5054889;28;20181;-79
2021/07/05 08:07:53;;;;;;;4.67;2.67;;;17.90;97.10;;;;;;5055465;28;20169;-81
2021/07/05 08:10:19;;;;;;;7.07;3.40;;;18.00;95.60;;;;;;5055416;28;20172;-75
2021/07/05 08:12:46;;;;;;;4.73;2.43;;;18.20;93.80;;;;;;5054840;28;20196;-80
2021/07/05 08:15:15;;;;;;;5.13;2.77;;;18.40;92.70;;;;;;5055401;28;20173;-79
2021/07/05 08:17:43;;;;;;;5.63;2.50;;;18.50;91.20;;;;;;5055127;28;20254;-82
2021/07/05 08:20:11;;;;;;;7.57;2.67;;;18.50;90.20;;;;;;5054914;28;20631;-76
2021/07/05 08:22:37;;;;;;;5.13;2.57;;;18.60;88.60;;;;;;5054878;28;20202;-76
2021/07/05 08:25:04;;;;;;;5.70;2.90;;;18.70;86.70;;;;;;5055198;28;20258;-74
2021/07/05 08:27:33;;;;;;;6.73;3.30;;;18.70;85.20;;;;;;5054792;28;20211;-75
2021/07/05 08:29:59;;;;;;;6.37;2.80;;;18.90;82.90;;;;;;5055334;28;20157;-76
2021/07/05 08:32:25;;;;;;;5.03;2.60;;;19.10;82.10;;;;;;5054544;28;20173;-81
2021/07/05 08:34:51;;;;;;;9.60;3.13;;;19.10;76.90;;;;;;5054863;28;20177;-81
2021/07/05 08:37:17;;;;;;;6.20;2.60;;;19.10;76.00;;;;;;5055393;28;20203;-79
2021/07/05 08:39:43;;;;;;;4.50;2.40;;;19.30;76.70;;;;;;5055259;28;20637;-74
2021/07/05 08:42:09;;;;;;;6.60;2.30;;;19.40;73.00;;;;;;5056102;28;20169;-78
2021/07/05 08:44:35;;;;;;;6.30;2.20;;;19.60;64.50;;;;;;5056479;28;20184;-81
2021/07/05 08:47:03;;;;;;;4.90;2.40;;;19.50;55.70;;;;;;5054799;28;20161;-74
2021/07/05 08:49:28;;;;;;;5.53;2.00;;;19.60;55.50;;;;;;5054302;28;20240;-81
2021/07/05 08:51:55;;;;;;;5.70;2.60;;;19.80;56.20;;;;;;5055355;28;20625;-81
2021/07/05 08:54:21;;;;;;;6.93;2.60;;;20.00;57.70;;;;;;5053033;28;20248;-76
2021/07/05 08:56:46;;;;;;;5.73;2.87;;;20.10;57.40;;;;;;5053766;28;20327;-81
2021/07/05 08:59:12;;;;;;;4.20;1.97;;;20.20;55.60;;;;;;5053553;28;20541;-81
2021/07/05 09:01:37;;;;;;;6.33;2.37;;;20.30;50.70;;;;;;5053729;28;20258;-82
2021/07/05 09:04:03;;;;;;;9.03;3.07;;;20.20;47.10;;;;;;5053640;28;20213;-77
2021/07/05 09:06:31;;;;;;;3.90;2.00;;;19.90;49.20;;;;;;5053803;28;20181;-74
2021/07/05 09:08:59;;;;;;;4.37;2.20;;;19.90;49.30;;;;;;5053166;28;20173;-75
2021/07/05 09:11:44;;;;;;;5.07;2.20;;;20.10;48.50;;;;;;5053349;28;20167;-74
2021/07/05 09:14:19;;;;;;;4.90;2.23;;;20.30;44.80;;;;;;5053199;28;20173;-81
2021/07/05 09:16:46;;;;;;;11.57;2.63;;;20.20;41.80;;;;;;5053609;28;20206;-75
2021/07/05 09:19:20;;;;;;;6.60;2.33;;;20.30;42.70;;;;;;5053416;28;20213;-80
2021/07/05 09:21:55;;;;;;;5.30;2.30;;;20.50;40.10;;;;;;5053504;28;20170;-79
2021/07/05 09:24:28;;;;;;;4.23;2.30;;;20.60;29.80;;;;;;5055477;28;20241;-80
2021/07/05 09:27:01;;;;;;;6.17;2.10;;;20.50;22.90;;;;;;5055895;28;20186;-76
2021/07/05 09:29:26;;;;;;;6.63;2.40;;;20.60;21.20;;;;;;5058226;28;20215;-76
2021/07/05 09:31:54;;;;;;;4.07;2.00;;;20.60;22.30;;;;;;5057987;28;20169;-80
2021/07/05 09:34:32;;;;;;;4.43;2.27;;;20.60;19.20;;;;;;5061467;28;20178;-78
2021/07/05 09:37:23;;;;;;;5.77;2.40;;;20.60;26.10;;;;;;5063268;28;20180;-73
2021/07/05 09:40:04;;;;;;;6.10;2.47;;;20.60;24.10;;;;;;5055618;28;20174;-78
2021/07/05 09:42:31;;;;;;;3.77;2.07;;;20.60;22.20;;;;;;5058465;28;20618;-76
2021/07/05 09:44:59;;;;;;;6.50;2.13;;;20.70;21.60;;;;;;5058529;28;20166;-76
2021/07/05 09:47:31;;;;;;;4.80;1.80;;;21.00;20.00;;;;;;5054658;28;20174;-76
2021/07/05 09:50:09;;;;;;;5.00;2.00;;;21.30;14.30;;;;;;5054519;28;20176;-81
2021/07/05 09:52:36;;;;;;;6.30;1.80;;;21.60;1.00;;;;;;5053814;28;20868;-79
2021/07/05 09:55:17;;;;;;;3.50;1.60;;;21.70;1.00;;;;;;5053141;28;20168;-81
2021/07/05 09:57:50;;;;;;;3.23;2.03;;;21.60;1.00;;;;;;5053019;28;20171;-74
2021/07/05 10:00:24;;;;;;;6.10;1.97;;;21.50;1.00;;;;;;5052781;28;20171;-81
2021/07/05 10:03:07;;;;;;;6.87;2.10;;;21.50;1.00;;;;;;5056012;28;20207;-74
2021/07/05 10:05:51;;;;;;;6.20;2.47;;;21.30;1.00;;;;;;5063815;28;20167;-77
2021/07/05 10:08:19;;;;;;;9.27;2.17;;;21.20;2.10;;;;;;5068349;28;20163;-76
2021/07/05 10:10:46;;;;;;;6.37;2.30;;;20.90;5.70;;;;;;5057439;28;20160;-74
2021/07/05 10:13:16;;;;;;;3.67;1.80;;;20.60;10.30;;;;;;5058154;28;20170;-76
2021/07/05 10:15:43;;;;;;;4.53;1.60;;;20.30;4.30;;;;;;5056850;28;20243;-74
2021/07/05 10:18:14;;;;;;;5.63;1.70;;;20.20;1.00;;;;;;5057526;28;20170;-83
2021/07/05 10:20:43;;;;;;;3.73;1.77;;;20.10;4.70;;;;;;5057215;28;20225;-77
2021/07/05 10:23:12;;;;;;;7.37;2.23;;;20.20;8.20;;;;;;5057641;28;20267;-80
2021/07/05 10:25:41;;;;;;;5.03;2.40;;;20.20;14.40;;;;;;5057956;28;20185;-83
2021/07/05 10:28:07;;;;;;;8.47;2.43;;;20.20;17.30;;;;;;5057795;28;20175;-80
2021/07/05 10:30:34;;;;;;;4.80;2.03;;;20.30;14.80;;;;;;5058017;28;20179;-80
2021/07/05 10:33:01;;;;;;;5.00;2.00;;;20.50;12.40;;;;;;5056568;28;20175;-76
2021/07/05 10:35:38;;;;;;;5.80;2.10;;;20.70;8.20;;;;;;5056191;28;20314;-74
2021/07/05 10:38:11;;;;;;;5.10;2.00;;;20.90;6.70;;;;;;5057019;28;20189;-75
2021/07/05 10:40:39;;;;;;;7.67;2.40;;;20.90;8.00;;;;;;5056014;28;20641;-80
2021/07/05 10:43:07;;;;;;;4.57;1.47;;;20.90;7.30;;;;;;5055931;28;20206;-77
2021/07/05 10:45:56;;;;;;;4.10;1.77;;;20.90;6.90;;;;;;5056343;28;20181;-75
2021/07/05 10:48:31;;;;;;;5.37;2.03;;;21.00;6.10;;;;;;5056871;28;20169;-76
2021/07/05 10:51:00;;;;;;;5.40;1.90;;;20.80;8.50;;;;;;5058179;28;20174;-78
2021/07/05 10:53:46;;;;;;;5.40;2.20;;;20.70;9.00;;;;;;5058843;28;20641;-75
2021/07/05 10:56:30;;;;;;;3.83;1.43;;;20.90;12.80;;;;;;5057698;28;20187;-76
2021/07/05 10:59:18;;;;;;;3.33;1.50;;;21.00;7.60;;;;;;5058367;28;20191;-83
2021/07/05 11:01:46;;;;;;;5.20;1.83;;;21.00;4.00;;;;;;5056963;28;20182;-75
2021/07/05 11:04:28;;;;;;;3.63;1.63;;;21.10;5.10;;;;;;5055776;28;20663;-74
2021/07/05 11:06:56;;;;;;;3.37;1.50;;;21.20;1.30;;;;;;5055743;28;20183;-81
2021/07/05 11:09:23;;;;;;;5.47;1.80;;;21.40;1.00;;;;;;5056267;28;20213;-81
2021/07/05 11:11:58;;;;;;;2.23;1.50;;;21.30;1.00;;;;;;5055533;28;20170;-79
2021/07/05 11:14:35;;;;;;;4.37;1.70;;;21.50;1.00;;;;;;5055356;28;20253;-75
2021/07/05 11:17:08;;;;;;;4.90;2.00;;;21.60;1.00;;;;;;5054773;28;20172;-81
2021/07/05 11:19:41;;;;;;;4.17;2.00;;;21.70;1.00;;;;;;5055598;28;20173;-81
2021/07/05 11:22:19;;;;;;;6.13;1.80;;;21.80;1.00;;;;;;5055656;28;20663;-76
2021/07/05 11:24:51;;;;;;;3.10;1.40;;;21.90;1.00;;;;;;5055724;28;20560;-80
2021/07/05 11:27:40;;;;;;;3.10;1.57;;;22.00;1.00;;;;;;5055815;28;20660;-77
2021/07/05 11:30:16;;;;;;;2.77;1.33;;;22.00;1.00;;;;;;5050196;28;20546;-78
2021/07/05 11:32:48;;;;;;;3.47;1.37;;;21.90;1.00;;;;;;5055491;28;20161;-81
2021/07/05 11:35:41;;;;;;;3.83;1.40;;;21.90;1.00;;;;;;5055724;28;20210;-78
2021/07/05 11:38:08;;;;;;;7.27;1.50;;;21.60;1.00;;;;;;5055104;28;20231;-78
2021/07/05 11:40:42;;;;;;;3.17;1.50;;;21.70;1.00;;;;;;5055236;28;20180;-77
2021/07/05 11:43:08;;;;;;;3.67;1.57;;;21.40;2.90;;;;;;5055082;28;20200;-83
2021/07/05 11:45:42;;;;;;;3.60;1.60;;;21.20;5.70;;;;;;5055434;28;20167;-76
2021/07/05 11:48:10;;;;;;;3.63;1.50;;;21.30;7.10;;;;;;5055010;28;20267;-79
2021/07/05 11:50:40;;;;;;;2.53;1.60;;;21.30;3.40;;;;;;5054951;28;20172;-74
2021/07/05 11:53:11;;;;;;;2.97;1.30;;;21.50;1.00;;;;;;5054572;28;20180;-81
2021/07/05 11:55:36;;;;;;;3.10;1.20;;;21.60;1.00;;;;;;5054918;28;20182;-75
2021/07/05 11:58:07;;;;;;;3.60;1.30;;;21.90;1.00;;;;;;5055120;28;20161;-75
2021/07/05 12:00:36;;;;;;;3.57;1.50;;;22.10;1.00;;;;;;5055267;28;20360;-80
2021/07/05 12:03:10;;;;;;;3.73;1.37;;;22.40;1.00;;;;;;5054761;28;20687;-76
2021/07/05 12:05:40;;;;;;;2.37;1.20;;;22.60;1.00;;;;;;5055223;28;20709;-84
2021/07/05 12:08:15;;;;;;;4.70;2.10;;;22.90;1.00;;;;;;5054877;28;20689;-76
2021/07/05 12:10:45;;;;;;;2.67;1.60;;;23.00;1.00;;;;;;5055244;28;20199;-77
2021/07/05 12:13:16;;;;;;;1.87;1.20;;;22.80;1.00;;;;;;5055887;28;20165;-79
2021/07/05 12:15:52;;;;;;;3.70;1.37;;;22.80;1.00;;;;;;5056234;28;20268;-80
2021/07/05 12:18:18;;;;;;;3.53;1.70;;;22.70;1.00;;;;;;5054638;28;20537;-78
2021/07/05 12:20:44;;;;;;;2.40;1.43;;;22.70;1.00;;;;;;5055956;28;20172;-79
2021/07/05 12:23:12;;;;;;;8.63;2.80;;;22.80;1.00;;;;;;5056557;28;20294;-83
2021/07/05 12:25:38;;;;;;;4.87;2.13;;;22.90;1.00;;;;;;5055288;28;20165;-77
2021/07/05 12:28:13;;;;;;;4.43;1.90;;;23.10;1.00;;;;;;5055090;28;20281;-77
2021/07/05 12:30:45;;;;;;;5.83;1.40;;;23.40;1.00;;;;;;5054722;28;20262;-80
2021/07/05 12:33:11;;;;;;;2.07;1.00;;;23.50;1.00;;;;;;5054465;28;20172;-75
2021/07/05 12:35:38;;;;;;;4.00;1.30;;;23.30;1.00;;;;;;5054499;28;20260;-79
2021/07/05 12:38:13;;;;;;;3.30;1.20;;;23.40;1.00;;;;;;5054090;28;20166;-75
2021/07/05 12:40:41;;;;;;;1.93;1.23;;;23.20;1.00;;;;;;5054193;28;20169;-81
2021/07/05 12:43:12;;;;;;;2.97;1.90;;;23.10;1.00;;;;;;5054314;28;20194;-82
2021/07/05 12:45:39;;;;;;;2.97;1.10;;;23.30;1.00;;;;;;5054035;28;20207;-75
2021/07/05 12:48:14;;;;;;;4.37;1.60;;;23.20;1.00;;;;;;5054526;28;20695;-76
2021/07/05 12:50:55;;;;;;;3.50;1.37;;;23.10;1.00;;;;;;5053814;28;20254;-80
2021/07/05 12:53:24;;;;;;;4.43;1.40;;;23.10;1.00;;;;;;5053489;28;20170;-80
2021/07/05 12:56:09;;;;;;;3.67;1.33;;;23.20;1.00;;;;;;5053750;28;20175;-82
2021/07/05 12:58:36;;;;;;;3.73;1.53;;;23.40;1.00;;;;;;5054122;28;20255;-75